createdAt,value
2022-12-18T00:00:42.987Z,54.63
2022-12-18T00:05:49.696Z,54.30
2022-12-18T00:10:52.546Z,54.40
2022-12-18T00:15:57.070Z,59.37
2022-12-18T00:21:01.984Z,58.83
2022-12-18T00:26:06.852Z,53.97
2022-12-18T00:31:13.048Z,60.63
2022-12-18T00:36:18.229Z,54.83
2022-12-18T00:41:35.642Z,61.17
2022-12-18T00:46:42.316Z,50.87
2022-12-18T00:51:45.441Z,57.40
2022-12-18T00:56:49.657Z,60.50
2022-12-18T01:01:54.918Z,63.40
2022-12-18T01:06:57.806Z,58.47
2022-12-18T01:12:00.692Z,57.33
2022-12-18T01:17:04.933Z,56.60
2022-12-18T01:22:09.664Z,52.87
2022-12-18T01:27:12.527Z,50.33
2022-12-18T01:32:17.795Z,57.70
2022-12-18T01:37:20.671Z,55.40
2022-12-18T01:42:24.343Z,55.90
2022-12-18T01:47:32.308Z,59.40
2022-12-18T01:52:36.551Z,59.53
2022-12-18T01:57:41.157Z,49.50
2022-12-18T02:02:47.093Z,57.50
2022-12-18T02:08:00.044Z,53.03
2022-12-18T02:13:14.123Z,51.50
2022-12-18T02:18:23.023Z,64.33
2022-12-18T02:23:41.996Z,87.83
2022-12-18T02:28:51.144Z,58.43
2022-12-18T02:33:56.437Z,55.90
2022-12-18T02:39:01.742Z,58.93
2022-12-18T02:44:11.179Z,53.37
2022-12-18T02:49:25.502Z,52.37
2022-12-18T02:54:44.643Z,55.43
2022-12-18T02:59:57.989Z,60.67
2022-12-18T03:05:07.510Z,51.37
2022-12-18T03:10:16.233Z,52.77
2022-12-18T03:15:26.642Z,50.77
2022-12-18T03:20:39.063Z,52.20
2022-12-18T03:25:46.088Z,51.20
2022-12-18T03:30:57.154Z,53.97
2022-12-18T03:36:00.369Z,51.13
2022-12-18T03:41:12.767Z,58.37
2022-12-18T03:46:45.538Z,51.03
2022-12-18T03:51:53.710Z,49.70
2022-12-18T03:57:00.312Z,53.23
2022-12-18T04:02:09.033Z,53.97
2022-12-18T04:07:14.050Z,59.27
2022-12-18T04:12:19.583Z,57.73
2022-12-18T04:17:25.994Z,44.80
2022-12-18T04:22:29.682Z,53.53
2022-12-18T04:27:36.052Z,51.43
2022-12-18T04:32:45.511Z,49.07
2022-12-18T04:37:51.296Z,48.27
2022-12-18T04:42:54.789Z,50.00
2022-12-18T04:47:59.298Z,51.03
2022-12-18T04:53:02.240Z,48.77
2022-12-18T04:58:05.154Z,44.87
2022-12-18T05:03:17.580Z,55.97
2022-12-18T05:08:21.060Z,53.00
2022-12-18T05:13:23.960Z,56.83
2022-12-18T05:18:28.400Z,49.23
2022-12-18T05:23:31.605Z,47.17
2022-12-18T05:28:36.592Z,49.40
2022-12-18T05:33:41.367Z,54.10
2022-12-18T05:38:44.528Z,47.10
2022-12-18T05:43:47.427Z,46.90
2022-12-18T05:48:52.008Z,51.60
2022-12-18T05:53:55.043Z,59.70
2022-12-18T05:58:57.949Z,57.67
2022-12-18T06:04:02.225Z,54.50
2022-12-18T06:09:09.171Z,53.27
2022-12-18T06:14:12.210Z,54.63
2022-12-18T06:19:18.238Z,53.83
2022-12-18T06:24:21.183Z,54.57
2022-12-18T06:29:24.229Z,55.37
2022-12-18T06:34:28.715Z,56.23
2022-12-18T06:39:31.716Z,59.07
2022-12-18T06:44:34.799Z,52.60
2022-12-18T06:49:39.288Z,51.03
2022-12-18T06:54:42.233Z,51.70
2022-12-18T06:59:45.680Z,55.37
2022-12-18T07:04:49.993Z,53.30
2022-12-18T07:09:53.445Z,51.40
2022-12-18T07:14:56.340Z,54.10
2022-12-18T07:20:00.640Z,57.33
2022-12-18T07:25:03.585Z,49.03
2022-12-18T07:30:07.968Z,49.27
2022-12-18T07:35:12.312Z,56.73
2022-12-18T07:40:15.408Z,50.00
2022-12-18T07:45:18.405Z,49.10
2022-12-18T07:50:22.908Z,53.77
2022-12-18T07:55:25.852Z,50.27
2022-12-18T08:00:28.884Z,54.50
2022-12-18T08:05:33.192Z,47.57
2022-12-18T08:10:36.131Z,55.77
2022-12-18T08:15:39.008Z,50.07
2022-12-18T08:20:43.431Z,59.93
2022-12-18T08:25:46.473Z,47.43
2022-12-18T08:30:53.873Z,51.43
2022-12-18T08:35:58.192Z,56.23
2022-12-18T08:41:02.101Z,61.33
2022-12-18T08:46:05.161Z,47.23
2022-12-18T08:51:10.651Z,49.33
2022-12-18T08:56:13.842Z,48.13
2022-12-18T09:01:16.791Z,49.27
2022-12-18T09:06:23.634Z,52.87
2022-12-18T09:11:29.023Z,51.50
2022-12-18T09:16:33.148Z,52.83
2022-12-18T09:21:42.264Z,48.40
2022-12-18T09:26:47.898Z,55.03
2022-12-18T09:31:51.456Z,47.80
2022-12-18T09:36:55.780Z,50.10
2022-12-18T09:42:00.603Z,59.30
2022-12-18T09:47:10.454Z,55.67
2022-12-18T09:52:19.660Z,50.83
2022-12-18T09:57:26.560Z,57.93
2022-12-18T10:02:33.500Z,57.50
2022-12-18T10:07:55.318Z,56.50
2022-12-18T10:13:05.684Z,56.23
2022-12-18T10:18:23.587Z,50.93
2022-12-18T10:23:32.640Z,48.00
2022-12-18T10:28:38.251Z,54.67
2022-12-18T10:33:42.240Z,44.90
2022-12-18T10:38:46.597Z,48.63
2022-12-18T10:43:50.013Z,49.00
2022-12-18T10:48:56.346Z,57.80
2022-12-18T10:54:04.611Z,49.37
2022-12-18T10:59:11.555Z,49.80
2022-12-18T11:04:20.655Z,47.27
2022-12-18T11:09:26.930Z,51.47
2022-12-18T11:14:31.715Z,57.90
2022-12-18T11:19:36.466Z,50.30
2022-12-18T11:24:41.649Z,53.20
2022-12-18T11:29:46.765Z,49.57
2022-12-18T11:34:58.798Z,50.30
2022-12-18T11:40:09.281Z,53.00
2022-12-18T11:45:28.552Z,58.07
2022-12-18T11:50:35.892Z,51.90
2022-12-18T11:55:48.005Z,52.10
2022-12-18T12:01:01.766Z,48.00
2022-12-18T12:06:15.488Z,61.77
2022-12-18T12:11:30.344Z,57.23
2022-12-18T12:16:43.651Z,50.67
2022-12-18T12:21:53.220Z,55.60
2022-12-18T12:27:10.355Z,54.17
2022-12-18T12:32:25.635Z,51.10
2022-12-18T12:37:41.043Z,59.60
2022-12-18T12:43:08.123Z,59.07
2022-12-18T12:48:20.124Z,54.53
2022-12-18T12:53:28.394Z,50.57
2022-12-18T12:58:40.541Z,57.60
2022-12-18T13:03:51.921Z,59.10
2022-12-18T13:08:58.349Z,59.33
2022-12-18T13:14:02.774Z,58.83
2022-12-18T13:19:05.714Z,65.23
2022-12-18T13:24:23.814Z,63.90
2022-12-18T13:29:47.755Z,67.60
2022-12-18T13:35:11.271Z,58.70
2022-12-18T13:41:00.011Z,62.20
2022-12-18T13:46:19.925Z,58.27
2022-12-18T13:51:24.101Z,63.83
2022-12-18T13:56:30.366Z,63.83
2022-12-18T14:01:34.810Z,76.57
2022-12-18T14:06:46.465Z,56.53
2022-12-18T14:11:51.178Z,64.57
2022-12-18T14:16:55.998Z,58.70
2022-12-18T14:21:58.982Z,60.33
2022-12-18T14:27:21.448Z,61.70
2022-12-18T14:32:25.798Z,65.80
2022-12-18T14:37:29.484Z,59.00
2022-12-18T14:42:32.747Z,59.10
2022-12-18T14:47:37.079Z,59.73
2022-12-18T14:52:40.122Z,61.87
2022-12-18T14:57:44.399Z,71.77
2022-12-18T15:02:50.372Z,63.67
2022-12-18T15:07:55.800Z,64.10
2022-12-18T15:13:22.546Z,59.77
2022-12-18T15:18:32.326Z,66.47
2022-12-18T15:23:38.460Z,72.03
2022-12-18T15:28:46.820Z,66.00
2022-12-18T15:34:11.965Z,61.73
2022-12-18T15:39:15.152Z,64.53
2022-12-18T15:44:25.585Z,71.13
2022-12-18T15:49:29.966Z,61.77
2022-12-18T15:54:51.135Z,69.50
2022-12-18T15:59:56.094Z,75.17
2022-12-18T16:05:00.426Z,67.07
2022-12-18T16:10:03.405Z,68.63
2022-12-18T16:15:07.977Z,64.70
2022-12-18T16:20:17.012Z,69.83
2022-12-18T16:25:21.952Z,68.30
2022-12-18T16:30:28.554Z,66.37
2022-12-18T16:35:38.021Z,67.83
2022-12-18T16:41:02.761Z,69.57
2022-12-18T16:46:05.828Z,66.40
2022-12-18T16:51:10.138Z,64.20
2022-12-18T16:56:13.044Z,80.87
2022-12-18T17:01:16.022Z,74.63
2022-12-18T17:06:20.429Z,73.87
2022-12-18T17:11:23.382Z,66.10
2022-12-18T17:16:28.614Z,73.63
2022-12-18T17:21:33.086Z,70.40
2022-12-18T17:26:36.141Z,69.47
2022-12-18T17:31:39.189Z,73.47
2022-12-18T17:36:43.881Z,68.37
2022-12-18T17:41:47.329Z,67.07
2022-12-18T17:46:50.388Z,74.10
2022-12-18T17:51:54.803Z,67.73
2022-12-18T17:56:57.753Z,74.67
2022-12-18T18:02:00.805Z,63.60
2022-12-18T18:07:05.467Z,65.43
2022-12-18T18:12:27.482Z,69.30
2022-12-18T18:17:30.710Z,81.87
2022-12-18T18:22:35.249Z,74.13
2022-12-18T18:27:38.883Z,79.03
2022-12-18T18:32:42.145Z,74.97
2022-12-18T18:37:50.399Z,74.30
2022-12-18T18:42:54.684Z,71.83
2022-12-18T18:47:58.862Z,84.27
2022-12-18T18:53:03.183Z,76.77
2022-12-18T18:58:06.101Z,73.67
2022-12-18T19:03:10.272Z,71.77
2022-12-18T19:08:14.654Z,69.53
2022-12-18T19:13:24.751Z,69.90
2022-12-18T19:18:27.648Z,76.77
2022-12-18T19:23:32.646Z,63.57
2022-12-18T19:28:36.515Z,67.47
2022-12-18T19:33:43.547Z,80.00
2022-12-18T19:38:48.881Z,90.17
2022-12-18T19:43:53.073Z,77.10
2022-12-18T19:48:56.022Z,74.50
2022-12-18T19:54:02.678Z,74.30
2022-12-18T19:59:05.962Z,68.83
2022-12-18T20:04:09.379Z,74.87
2022-12-18T20:09:13.718Z,73.30
2022-12-18T20:14:21.147Z,80.03
2022-12-18T20:19:27.689Z,78.23
2022-12-18T20:24:32.175Z,77.50
2022-12-18T20:29:35.344Z,80.27
2022-12-18T20:34:38.474Z,77.27
2022-12-18T20:39:42.826Z,73.43
2022-12-18T20:44:46.675Z,74.53
2022-12-18T20:49:49.587Z,78.73
2022-12-18T20:54:53.932Z,70.90
2022-12-18T20:59:56.852Z,71.93
2022-12-18T21:04:59.757Z,75.80
2022-12-18T21:10:06.338Z,73.53
2022-12-18T21:15:11.407Z,73.83
2022-12-18T21:20:18.233Z,80.73
2022-12-18T21:25:23.258Z,77.87
2022-12-18T21:30:26.160Z,75.07
2022-12-18T21:35:29.288Z,76.80
2022-12-18T21:40:36.386Z,73.13
2022-12-18T21:45:40.258Z,83.40
2022-12-18T21:50:43.190Z,69.70
2022-12-18T21:55:47.457Z,79.47
2022-12-18T22:00:51.224Z,71.83
2022-12-18T22:06:09.213Z,76.83
2022-12-18T22:11:14.357Z,79.80
2022-12-18T22:16:19.015Z,73.40
2022-12-18T22:21:29.944Z,73.20
2022-12-18T22:26:40.177Z,81.33
2022-12-18T22:31:43.498Z,73.13
2022-12-18T22:36:48.498Z,72.80
2022-12-18T22:41:53.465Z,76.20
2022-12-18T22:47:06.364Z,73.67
2022-12-18T22:52:10.753Z,74.53
2022-12-18T22:57:14.981Z,75.77
2022-12-18T23:02:19.931Z,74.13
2022-12-18T23:07:23.097Z,79.80
2022-12-18T23:12:27.397Z,76.57
2022-12-18T23:17:30.495Z,73.83
2022-12-18T23:22:33.366Z,71.67
2022-12-18T23:27:37.626Z,77.67
2022-12-18T23:32:40.590Z,74.57
2022-12-18T23:37:58.796Z,72.67
2022-12-18T23:43:03.309Z,79.00
2022-12-18T23:48:06.221Z,71.60
2022-12-18T23:53:10.151Z,79.33
2022-12-18T23:58:19.659Z,70.90
